Time;durP1;ratioP1;P1;durP2;ratioP2;P2;SDS_P1;SDS_P2;PMS_P1;PMS_P2;Temp;Humidity;BMP_temperature;BMP_pressure;BME280_temperature;BME280_humidity;BME280_pressure;Samples;Min_cycle;Max_cycle;Signal;HPM_P1;HPM_P2
2021/01/19 00:01:38;;;;;;;5.73;3.73;;;3.40;99.90;;;;;;5033954;28;20203;-59
2021/01/19 00:04:05;;;;;;;6.20;3.70;;;3.30;99.90;;;;;;5033276;28;20239;-58
2021/01/19 00:06:30;;;;;;;3.73;3.40;;;3.30;99.90;;;;;;5033633;28;20449;-58
2021/01/19 00:08:56;;;;;;;7.43;3.70;;;3.20;99.90;;;;;;5033886;28;20186;-59
2021/01/19 00:11:21;;;;;;;4.47;3.23;;;3.20;99.90;;;;;;5033642;28;20199;-58
2021/01/19 00:13:47;;;;;;;4.37;3.20;;;3.30;99.90;;;;;;5033768;28;20249;-59
2021/01/19 00:16:12;;;;;;;4.60;3.40;;;3.30;99.90;;;;;;5033780;28;20254;-58
2021/01/19 00:18:38;;;;;;;5.50;3.43;;;3.40;99.90;;;;;;5033168;28;20186;-58
2021/01/19 00:21:04;;;;;;;4.23;3.63;;;3.30;99.90;;;;;;5033310;28;20199;-58
2021/01/19 00:23:29;;;;;;;6.97;3.33;;;3.20;99.90;;;;;;5034016;28;20539;-57
2021/01/19 00:25:55;;;;;;;3.97;3.23;;;3.20;99.90;;;;;;5033609;28;20411;-58
2021/01/19 00:28:21;;;;;;;3.97;3.57;;;3.30;99.90;;;;;;5033378;28;20178;-58
2021/01/19 00:30:46;;;;;;;5.40;3.40;;;3.30;99.90;;;;;;5033638;28;20678;-59
2021/01/19 00:33:12;;;;;;;5.20;3.40;;;3.20;99.90;;;;;;5033188;28;20167;-58
2021/01/19 00:35:41;;;;;;;5.70;3.43;;;3.20;99.90;;;;;;5033728;28;20193;-58
2021/01/19 00:38:07;;;;;;;6.13;4.10;;;3.10;99.90;;;;;;5033314;28;20175;-59
2021/01/19 00:40:33;;;;;;;4.50;3.27;;;3.10;99.90;;;;;;5033237;28;20456;-58
2021/01/19 00:42:59;;;;;;;3.67;3.30;;;3.20;99.90;;;;;;5049284;28;20415;-59
2021/01/19 00:45:25;;;;;;;3.10;2.80;;;3.10;99.90;;;;;;5053266;28;20404;-58
2021/01/19 00:47:51;;;;;;;3.20;3.00;;;3.10;99.90;;;;;;5049594;28;20190;-59
2021/01/19 00:50:16;;;;;;;3.30;3.03;;;3.10;99.90;;;;;;5032899;28;20895;-58
2021/01/19 00:52:42;;;;;;;3.40;3.10;;;3.10;99.90;;;;;;5033262;28;20246;-58
2021/01/19 00:55:09;;;;;;;4.20;3.30;;;3.10;99.90;;;;;;5033510;28;20579;-58
2021/01/19 00:57:35;;;;;;;3.73;3.13;;;3.20;99.90;;;;;;5033370;28;20191;-58
2021/01/19 01:00:00;;;;;;;4.90;3.50;;;3.00;99.90;;;;;;5032499;28;20452;-59
2021/01/19 01:02:26;;;;;;;3.80;2.73;;;3.10;99.90;;;;;;5033461;28;20512;-59
2021/01/19 01:04:51;;;;;;;3.57;3.20;;;3.20;99.90;;;;;;5033151;28;20171;-54
2021/01/19 01:07:17;;;;;;;4.73;4.00;;;3.20;99.90;;;;;;5034007;28;20659;-54
2021/01/19 01:09:42;;;;;;;3.87;3.47;;;3.20;99.90;;;;;;5034234;28;20171;-54
2021/01/19 01:12:08;;;;;;;7.37;3.43;;;3.20;99.90;;;;;;5034021;28;20224;-57
2021/01/19 01:14:34;;;;;;;3.23;2.73;;;3.20;99.90;;;;;;5032874;28;20547;-55
2021/01/19 01:17:00;;;;;;;3.70;3.13;;;3.30;99.90;;;;;;5033501;28;20415;-55
2021/01/19 01:19:26;;;;;;;5.00;3.30;;;3.20;99.90;;;;;;5033439;28;20176;-56
2021/01/19 01:21:52;;;;;;;3.40;3.00;;;3.00;99.90;;;;;;5033477;28;20464;-58
2021/01/19 01:24:18;;;;;;;4.10;3.27;;;2.90;99.90;;;;;;5033025;28;20438;-56
2021/01/19 01:26:43;;;;;;;4.73;3.30;;;3.10;99.90;;;;;;5032987;28;20174;-58
2021/01/19 01:29:09;;;;;;;3.53;2.60;;;3.00;99.90;;;;;;5032692;28;20183;-59
2021/01/19 01:31:35;;;;;;;3.70;3.03;;;2.80;99.90;;;;;;5032475;28;20726;-59
2021/01/19 01:34:02;;;;;;;8.30;3.20;;;3.00;99.90;;;;;;5032558;28;20241;-59
2021/01/19 01:36:27;;;;;;;2.80;2.60;;;3.10;99.90;;;;;;5032719;28;20406;-59
2021/01/19 01:38:53;;;;;;;3.73;3.00;;;3.10;99.90;;;;;;5035738;28;20509;-57
2021/01/19 01:41:20;;;;;;;3.47;2.93;;;3.10;99.90;;;;;;5036574;28;20235;-59
2021/01/19 01:43:46;;;;;;;3.50;3.20;;;3.00;99.90;;;;;;5036387;28;20175;-58
2021/01/19 01:46:14;;;;;;;3.23;2.93;;;3.10;99.90;;;;;;5036062;28;20398;-59
2021/01/19 01:48:41;;;;;;;3.93;3.33;;;3.00;99.90;;;;;;5042693;28;20423;-59
2021/01/19 01:51:09;;;;;;;4.40;3.20;;;2.90;99.90;;;;;;5056140;28;20418;-59
2021/01/19 01:53:37;;;;;;;6.70;2.30;;;2.90;99.90;;;;;;5056896;28;20958;-58
2021/01/19 01:56:02;;;;;;;3.43;2.80;;;3.10;99.90;;;;;;5056068;28;20420;-58
2021/01/19 01:58:28;;;;;;;4.60;2.83;;;2.90;99.90;;;;;;5056108;28;20403;-56
2021/01/19 02:00:54;;;;;;;6.70;3.43;;;2.90;99.90;;;;;;5056141;28;20284;-59
2021/01/19 02:03:20;;;;;;;4.00;3.23;;;3.00;99.90;;;;;;5055681;28;20284;-59
2021/01/19 02:05:45;;;;;;;4.07;3.70;;;3.00;99.90;;;;;;5056072;28;20405;-59
2021/01/19 02:08:34;;;;;;;3.90;3.50;;;3.00;99.90;;;;;;5055821;28;20173;-59
2021/01/19 02:11:22;;;;;;;4.03;3.40;;;3.00;99.90;;;;;;5055145;28;20339;-58
2021/01/19 02:13:56;;;;;;;3.53;3.13;;;3.00;99.90;;;;;;5055982;28;20406;-59
2021/01/19 02:16:30;;;;;;;5.30;3.50;;;3.10;99.90;;;;;;5056166;28;20401;-55
2021/01/19 02:19:22;;;;;;;7.93;3.23;;;3.00;99.90;;;;;;5045700;28;20414;-59
2021/01/19 02:22:26;;;;;;;4.57;3.13;;;2.70;99.90;;;;;;5042530;28;20535;-59
2021/01/19 02:25:03;;;;;;;4.60;3.27;;;2.60;99.90;;;;;;5056021;28;20424;-57
2021/01/19 02:27:31;;;;;;;4.87;3.77;;;2.80;99.90;;;;;;5055784;28;20390;-57
2021/01/19 02:30:07;;;;;;;4.03;3.17;;;2.80;99.90;;;;;;5055972;28;20980;-57
2021/01/19 02:33:14;;;;;;;4.77;3.30;;;2.70;99.90;;;;;;5056045;28;20411;-56
2021/01/19 02:36:19;;;;;;;5.03;3.10;;;2.90;99.90;;;;;;5056553;28;20412;-57
2021/01/19 02:39:02;;;;;;;4.10;3.40;;;2.80;99.90;;;;;;5054626;28;20420;-57
2021/01/19 02:41:28;;;;;;;8.43;3.73;;;2.80;99.90;;;;;;5055357;28;20452;-55
2021/01/19 02:44:20;;;;;;;4.23;3.07;;;2.70;99.90;;;;;;5055339;28;20412;-58
2021/01/19 02:46:54;;;;;;;4.17;3.20;;;2.70;99.90;;;;;;5055676;28;20468;-57
2021/01/19 02:49:21;;;;;;;3.63;3.10;;;2.70;99.90;;;;;;5039371;28;20533;-58
2021/01/19 02:51:49;;;;;;;4.07;3.40;;;2.70;99.90;;;;;;5034927;28;20463;-58
2021/01/19 02:54:16;;;;;;;3.67;3.27;;;2.60;99.90;;;;;;5034928;28;20966;-58
2021/01/19 02:57:23;;;;;;;4.63;3.10;;;2.60;99.90;;;;;;5034936;28;20437;-58
2021/01/19 03:00:21;;;;;;;3.70;3.00;;;2.70;99.90;;;;;;5034897;28;20421;-58
2021/01/19 03:02:48;;;;;;;3.00;2.70;;;2.60;99.90;;;;;;5035708;28;20790;-57
2021/01/19 03:05:15;;;;;;;4.30;2.67;;;2.60;99.90;;;;;;5034576;28;20492;-59
2021/01/19 03:07:45;;;;;;;3.17;2.87;;;2.80;99.90;;;;;;5035132;28;20411;-59
2021/01/19 03:10:16;;;;;;;5.50;3.10;;;3.00;99.90;;;;;;5033799;28;20422;-58
2021/01/19 03:12:46;;;;;;;3.53;2.60;;;3.10;99.90;;;;;;5035026;28;20477;-58
2021/01/19 03:15:15;;;;;;;3.50;2.97;;;3.20;99.90;;;;;;5034795;28;20425;-58
2021/01/19 03:17:43;;;;;;;2.93;2.43;;;3.10;99.90;;;;;;5034770;28;20406;-58
2021/01/19 03:20:14;;;;;;;6.20;2.73;;;3.20;99.90;;;;;;5035245;28;20876;-57
2021/01/19 03:22:40;;;;;;;3.53;2.57;;;3.20;99.90;;;;;;5035129;28;20395;-58
2021/01/19 03:25:07;;;;;;;2.87;2.40;;;3.20;99.90;;;;;;5034442;28;20746;-56
2021/01/19 03:27:32;;;;;;;2.70;2.50;;;3.40;99.90;;;;;;5033720;28;20954;-57
2021/01/19 03:29:58;;;;;;;6.33;2.90;;;3.50;99.90;;;;;;5034756;28;20532;-58
2021/01/19 03:32:23;;;;;;;3.10;2.80;;;3.50;99.90;;;;;;5033245;28;20171;-58
2021/01/19 03:34:49;;;;;;;3.20;2.10;;;3.50;99.90;;;;;;5034803;28;20217;-58
2021/01/19 03:37:15;;;;;;;3.60;2.63;;;3.50;99.90;;;;;;5034186;28;20575;-58
2021/01/19 03:39:40;;;;;;;5.07;3.10;;;3.40;99.90;;;;;;5034167;28;20168;-57
2021/01/19 03:42:06;;;;;;;2.73;2.50;;;3.50;99.90;;;;;;5033842;28;20214;-57
2021/01/19 03:44:31;;;;;;;3.27;2.47;;;3.50;99.90;;;;;;5034237;28;20206;-58
2021/01/19 03:46:57;;;;;;;2.60;2.40;;;3.40;99.90;;;;;;5034341;28;20177;-59
2021/01/19 03:49:23;;;;;;;5.73;2.90;;;3.60;99.90;;;;;;5034297;28;20168;-56
2021/01/19 03:51:48;;;;;;;3.07;2.77;;;3.50;99.90;;;;;;5033967;28;20190;-59
2021/01/19 03:54:14;;;;;;;2.83;2.20;;;3.60;99.90;;;;;;5034249;28;20167;-59
2021/01/19 03:56:39;;;;;;;3.77;3.20;;;3.50;99.90;;;;;;5033972;28;20211;-59
2021/01/19 03:59:05;;;;;;;3.20;2.80;;;3.40;99.90;;;;;;5033749;28;20662;-57
2021/01/19 04:01:31;;;;;;;5.53;3.10;;;3.20;99.90;;;;;;5034076;28;20207;-58
2021/01/19 04:03:56;;;;;;;3.43;2.67;;;3.20;99.90;;;;;;5035401;28;20602;-57
2021/01/19 04:06:22;;;;;;;5.17;2.87;;;3.30;99.90;;;;;;5034384;28;20644;-59
2021/01/19 04:08:48;;;;;;;2.50;2.20;;;3.40;99.90;;;;;;5033708;28;20255;-57
2021/01/19 04:11:13;;;;;;;3.40;2.70;;;3.40;99.90;;;;;;5033887;28;20930;-58
2021/01/19 04:13:39;;;;;;;4.10;2.87;;;3.50;99.90;;;;;;5032946;28;20237;-58
2021/01/19 04:16:04;;;;;;;3.33;3.10;;;3.30;99.90;;;;;;5033665;28;20174;-59
2021/01/19 04:18:30;;;;;;;6.57;3.03;;;3.40;99.90;;;;;;5033698;28;20175;-58
2021/01/19 04:20:56;;;;;;;2.93;2.67;;;3.50;99.90;;;;;;5032414;28;20234;-59
2021/01/19 04:23:21;;;;;;;2.90;2.30;;;3.40;99.90;;;;;;5033459;28;20171;-58
2021/01/19 04:25:48;;;;;;;2.97;2.67;;;3.30;99.90;;;;;;5033970;28;20177;-59
2021/01/19 04:28:14;;;;;;;4.03;2.40;;;3.20;99.90;;;;;;5034159;28;20217;-59
2021/01/19 04:30:41;;;;;;;3.07;2.40;;;3.20;99.90;;;;;;5053793;28;20437;-59
2021/01/19 04:33:07;;;;;;;3.37;3.07;;;3.20;99.90;;;;;;5053607;28;20419;-57
2021/01/19 04:35:33;;;;;;;3.17;2.83;;;3.00;99.90;;;;;;5053118;28;20959;-56
2021/01/19 04:37:58;;;;;;;3.50;3.20;;;3.00;99.90;;;;;;5053517;28;20208;-54
2021/01/19 04:40:24;;;;;;;4.40;3.13;;;3.00;99.90;;;;;;5054177;28;20195;-57
2021/01/19 04:42:50;;;;;;;4.30;2.60;;;2.90;99.90;;;;;;5054371;28;20166;-59
2021/01/19 04:45:16;;;;;;;5.17;3.23;;;2.70;99.90;;;;;;5053111;28;20400;-55
2021/01/19 04:47:42;;;;;;;4.23;2.80;;;2.70;99.90;;;;;;5053953;28;20452;-56
2021/01/19 04:50:10;;;;;;;3.00;2.60;;;2.70;99.90;;;;;;5053491;28;20440;-57
2021/01/19 04:52:39;;;;;;;2.87;2.53;;;2.70;99.90;;;;;;5053090;28;20216;-56
2021/01/19 04:55:10;;;;;;;5.27;3.50;;;2.80;99.90;;;;;;5053042;28;20407;-55
2021/01/19 04:57:38;;;;;;;3.40;3.03;;;2.80;99.90;;;;;;5052939;28;20425;-57
2021/01/19 05:00:09;;;;;;;3.30;3.00;;;2.80;99.90;;;;;;5036958;28;20653;-57
2021/01/19 05:02:41;;;;;;;4.57;3.23;;;2.80;99.90;;;;;;5032887;28;20539;-56
2021/01/19 05:05:25;;;;;;;2.90;2.30;;;2.90;99.90;;;;;;5033298;28;20409;-58
2021/01/19 05:08:20;;;;;;;4.57;3.57;;;2.90;99.90;;;;;;5033114;28;20382;-57
2021/01/19 05:11:20;;;;;;;4.90;3.00;;;2.90;99.90;;;;;;5032825;28;20441;-57
2021/01/19 05:14:02;;;;;;;2.83;2.30;;;2.90;99.90;;;;;;5039498;28;20425;-58
2021/01/19 05:16:30;;;;;;;5.43;2.97;;;3.00;99.90;;;;;;5053982;28;20934;-58
2021/01/19 05:18:57;;;;;;;3.13;2.87;;;2.90;99.90;;;;;;5056857;28;20925;-57
2021/01/19 05:21:23;;;;;;;5.10;2.87;;;2.90;99.90;;;;;;5056901;28;20810;-56
2021/01/19 05:23:49;;;;;;;3.70;2.50;;;2.80;99.90;;;;;;5046852;28;20859;-58
2021/01/19 05:26:16;;;;;;;4.50;2.97;;;2.90;99.90;;;;;;5036973;28;20429;-59
2021/01/19 05:28:44;;;;;;;3.10;2.73;;;2.80;99.90;;;;;;5036626;28;20595;-59
2021/01/19 05:31:16;;;;;;;4.90;3.00;;;2.90;99.90;;;;;;5036914;28;20425;-58
2021/01/19 05:33:56;;;;;;;3.37;2.70;;;2.80;99.90;;;;;;5036783;28;20915;-57
2021/01/19 05:36:46;;;;;;;3.30;2.63;;;2.70;99.90;;;;;;5036945;28;20400;-59
2021/01/19 05:39:22;;;;;;;3.30;3.00;;;2.70;99.90;;;;;;5036117;28;20421;-57
2021/01/19 05:41:52;;;;;;;5.43;2.70;;;2.70;99.90;;;;;;5036793;28;20471;-57
2021/01/19 05:44:26;;;;;;;5.57;3.23;;;2.70;99.90;;;;;;5036667;28;20778;-57
2021/01/19 05:46:59;;;;;;;3.90;3.30;;;2.60;99.90;;;;;;5036778;28;20764;-57
2021/01/19 05:49:28;;;;;;;3.63;3.27;;;2.70;99.90;;;;;;5035406;28;20425;-57
2021/01/19 05:52:15;;;;;;;5.03;2.47;;;2.70;99.90;;;;;;5036528;28;20459;-58
2021/01/19 05:54:41;;;;;;;5.73;3.30;;;2.60;99.90;;;;;;5036412;28;20409;-58
2021/01/19 05:57:09;;;;;;;3.40;2.80;;;2.60;99.90;;;;;;5036076;28;20441;-57
2021/01/19 05:59:43;;;;;;;3.83;3.43;;;2.60;99.90;;;;;;5036170;28;20434;-57
2021/01/19 06:02:13;;;;;;;3.23;2.70;;;2.60;99.90;;;;;;5036055;28;20557;-59
2021/01/19 06:04:43;;;;;;;5.23;3.30;;;2.80;99.90;;;;;;5035648;28;20402;-58
2021/01/19 06:07:10;;;;;;;3.87;3.03;;;2.90;99.90;;;;;;5036103;28;20405;-57
2021/01/19 06:09:37;;;;;;;5.43;2.87;;;2.90;99.90;;;;;;5036277;28;20766;-59
2021/01/19 06:12:04;;;;;;;4.10;2.80;;;2.80;99.90;;;;;;5035837;28;20434;-57
2021/01/19 06:14:30;;;;;;;3.30;3.00;;;2.80;99.90;;;;;;5035730;28;20406;-57
2021/01/19 06:17:11;;;;;;;3.20;2.90;;;2.80;99.90;;;;;;5036063;28;20414;-59
2021/01/19 06:19:37;;;;;;;3.30;3.00;;;3.00;99.90;;;;;;5035465;28;20770;-57
2021/01/19 06:22:11;;;;;;;3.20;2.90;;;2.90;99.90;;;;;;5035576;28;20453;-57
2021/01/19 06:24:40;;;;;;;3.43;3.13;;;2.60;99.90;;;;;;5035712;28;20428;-58
2021/01/19 06:27:07;;;;;;;7.33;4.07;;;2.60;99.90;;;;;;5035688;28;20406;-59
2021/01/19 06:29:33;;;;;;;4.17;2.80;;;2.70;99.90;;;;;;5035850;28;20434;-57
2021/01/19 06:32:01;;;;;;;2.97;2.67;;;2.80;99.90;;;;;;5035815;28;20858;-57
2021/01/19 06:34:32;;;;;;;3.47;3.03;;;2.60;99.90;;;;;;5035201;28;20855;-54
2021/01/19 06:36:58;;;;;;;5.27;4.00;;;2.40;99.90;;;;;;5035403;28;20389;-58
2021/01/19 06:39:56;;;;;;;3.37;2.53;;;2.40;99.90;;;;;;5045205;28;20421;-58
2021/01/19 06:42:27;;;;;;;3.20;2.80;;;2.30;99.90;;;;;;5055010;28;20458;-56
2021/01/19 06:44:56;;;;;;;5.43;3.70;;;2.40;99.90;;;;;;5055084;28;20392;-58
2021/01/19 06:47:22;;;;;;;7.73;2.97;;;2.50;99.90;;;;;;5055489;28;20409;-57
2021/01/19 06:49:49;;;;;;;5.90;3.50;;;2.60;99.90;;;;;;5034978;28;20916;-57
2021/01/19 06:52:17;;;;;;;5.20;2.70;;;2.50;99.90;;;;;;5034941;28;20436;-57
2021/01/19 06:55:05;;;;;;;3.90;3.50;;;2.40;99.90;;;;;;5035442;28;20445;-57
2021/01/19 06:57:47;;;;;;;5.10;3.20;;;2.40;99.90;;;;;;5034948;28;20845;-57
2021/01/19 07:00:20;;;;;;;4.47;3.60;;;2.20;99.90;;;;;;5034281;28;20450;-57
2021/01/19 07:02:53;;;;;;;3.00;2.70;;;2.20;99.90;;;;;;5035252;28;20541;-58
2021/01/19 07:05:19;;;;;;;3.53;2.80;;;2.20;99.90;;;;;;5035244;28;20396;-57
2021/01/19 07:07:54;;;;;;;3.60;2.70;;;2.20;99.90;;;;;;5034866;28;20524;-58
2021/01/19 07:10:20;;;;;;;10.10;4.13;;;2.30;99.90;;;;;;5034483;28;20397;-59
2021/01/19 07:13:05;;;;;;;3.73;3.43;;;2.20;99.90;;;;;;5034678;28;20768;-58
2021/01/19 07:15:53;;;;;;;3.73;2.30;;;2.00;99.90;;;;;;5033640;28;20420;-57
2021/01/19 07:18:45;;;;;;;3.37;3.07;;;2.20;99.90;;;;;;5034541;28;20389;-59
2021/01/19 07:21:13;;;;;;;3.73;3.40;;;2.20;99.90;;;;;;5034348;28;20458;-59
2021/01/19 07:23:44;;;;;;;4.97;3.90;;;2.10;99.90;;;;;;5034667;28;20406;-58
2021/01/19 07:26:20;;;;;;;6.23;4.10;;;2.10;99.90;;;;;;5034285;28;20463;-58
2021/01/19 07:28:47;;;;;;;5.70;3.97;;;2.10;99.90;;;;;;5034311;28;20444;-58
2021/01/19 07:31:14;;;;;;;5.50;3.73;;;2.10;99.90;;;;;;5034463;28;20455;-58
2021/01/19 07:33:42;;;;;;;8.77;3.70;;;2.00;99.90;;;;;;5033209;28;20426;-59
2021/01/19 07:36:19;;;;;;;4.03;3.20;;;2.10;99.90;;;;;;5034127;28;20408;-58
2021/01/19 07:38:45;;;;;;;7.10;3.40;;;2.00;99.90;;;;;;5034885;28;20810;-55
2021/01/19 07:41:12;;;;;;;4.67;3.27;;;2.10;99.90;;;;;;5034318;28;20449;-59
2021/01/19 07:43:39;;;;;;;6.77;3.40;;;2.10;99.90;;;;;;5034633;28;20916;-58
2021/01/19 07:46:05;;;;;;;3.70;3.40;;;2.10;99.90;;;;;;5034321;28;20960;-58
2021/01/19 07:48:36;;;;;;;3.73;3.43;;;2.20;99.90;;;;;;5034029;28;20406;-59
2021/01/19 07:51:12;;;;;;;5.13;3.27;;;2.20;99.90;;;;;;5034453;28;20421;-56
2021/01/19 07:53:51;;;;;;;6.43;3.60;;;2.40;99.90;;;;;;5035787;28;20420;-52
2021/01/19 07:56:24;;;;;;;4.90;3.40;;;2.40;99.90;;;;;;5036190;28;20459;-54
2021/01/19 07:58:50;;;;;;;7.50;3.80;;;2.40;99.90;;;;;;5036730;28;20409;-53
2021/01/19 08:01:26;;;;;;;5.57;2.80;;;2.50;99.90;;;;;;5036666;28;20510;-53
2021/01/19 08:03:52;;;;;;;7.70;3.73;;;2.70;99.90;;;;;;5037118;28;20957;-55
2021/01/19 08:06:30;;;;;;;3.63;3.20;;;2.70;99.90;;;;;;5041211;28;20502;-53
2021/01/19 08:08:56;;;;;;;4.70;3.53;;;2.80;99.90;;;;;;5051922;28;20231;-54
2021/01/19 08:11:21;;;;;;;5.10;3.63;;;2.70;99.90;;;;;;5040253;28;20445;-57
2021/01/19 08:13:57;;;;;;;4.67;3.63;;;2.80;99.90;;;;;;5037929;28;20405;-55
2021/01/19 08:16:28;;;;;;;4.83;3.43;;;3.00;99.90;;;;;;5038032;28;20546;-56
2021/01/19 08:19:14;;;;;;;7.60;3.63;;;3.10;99.90;;;;;;5036432;28;20810;-54
2021/01/19 08:21:50;;;;;;;4.03;3.00;;;3.10;99.90;;;;;;5038147;28;20450;-57
2021/01/19 08:24:19;;;;;;;6.33;3.37;;;3.20;99.90;;;;;;5037970;28;20443;-55
2021/01/19 08:26:45;;;;;;;3.50;2.70;;;3.40;99.90;;;;;;5037420;28;20406;-53
2021/01/19 08:29:11;;;;;;;3.63;3.00;;;3.40;99.90;;;;;;5037459;28;20414;-56
2021/01/19 08:31:37;;;;;;;5.43;3.60;;;3.50;99.90;;;;;;5037971;28;20225;-57
2021/01/19 08:34:07;;;;;;;5.27;3.37;;;3.50;99.90;;;;;;5037470;28;20413;-57
2021/01/19 08:36:36;;;;;;;4.97;2.83;;;3.40;99.90;;;;;;5056226;28;20465;-56
2021/01/19 08:39:05;;;;;;;3.50;2.83;;;3.30;99.90;;;;;;5040702;28;20437;-54
2021/01/19 08:41:31;;;;;;;7.53;4.20;;;3.30;99.90;;;;;;5037700;28;20453;-57
2021/01/19 08:44:04;;;;;;;5.80;3.40;;;3.30;99.90;;;;;;5036928;28;20459;-56
2021/01/19 08:46:31;;;;;;;4.00;3.43;;;3.40;99.90;;;;;;5036812;28;20891;-54
2021/01/19 08:49:07;;;;;;;3.30;3.00;;;3.40;99.90;;;;;;5037409;28;20425;-55
2021/01/19 08:51:34;;;;;;;5.73;3.50;;;3.40;99.90;;;;;;5038289;28;20432;-56
2021/01/19 08:54:01;;;;;;;8.53;4.30;;;3.60;99.90;;;;;;5039483;28;20406;-55
2021/01/19 08:56:28;;;;;;;4.20;3.80;;;3.70;99.90;;;;;;5039673;28;20840;-55
2021/01/19 08:58:54;;;;;;;4.40;3.80;;;3.70;99.90;;;;;;5039757;28;20421;-56
2021/01/19 09:01:20;;;;;;;5.10;3.63;;;3.80;99.90;;;;;;5039184;28;20469;-57
2021/01/19 09:03:57;;;;;;;5.07;3.17;;;3.80;99.90;;;;;;5040304;28;20982;-56
2021/01/19 09:06:23;;;;;;;5.53;4.20;;;3.90;99.90;;;;;;5040650;28;20397;-55
2021/01/19 09:08:59;;;;;;;5.57;4.00;;;4.00;99.90;;;;;;5039802;28;20409;-57
2021/01/19 09:11:30;;;;;;;4.47;3.17;;;4.10;99.90;;;;;;5040412;28;20429;-57
2021/01/19 09:14:09;;;;;;;6.30;3.93;;;4.30;99.90;;;;;;5040029;28;20525;-57
2021/01/19 09:16:36;;;;;;;5.10;3.93;;;4.50;99.90;;;;;;5039354;28;20390;-54
2021/01/19 09:19:05;;;;;;;4.30;3.40;;;4.60;99.90;;;;;;5040770;28;20409;-57
2021/01/19 09:21:32;;;;;;;5.43;4.10;;;4.40;99.90;;;;;;5040121;28;20522;-57
2021/01/19 09:23:59;;;;;;;4.63;4.00;;;4.50;99.90;;;;;;5039308;28;20413;-57
2021/01/19 09:26:24;;;;;;;7.47;4.47;;;4.60;99.90;;;;;;5036542;28;20398;-59
2021/01/19 09:28:51;;;;;;;4.90;3.67;;;4.50;99.90;;;;;;5032746;28;20412;-56
2021/01/19 09:31:19;;;;;;;7.73;4.03;;;4.80;99.90;;;;;;5031985;28;20195;-59
2021/01/19 09:33:46;;;;;;;4.40;3.97;;;4.80;99.90;;;;;;5032884;28;20438;-58
2021/01/19 09:36:13;;;;;;;7.07;3.50;;;4.40;99.90;;;;;;5032836;28;20437;-58
2021/01/19 09:38:39;;;;;;;8.53;5.73;;;4.40;99.90;;;;;;5031565;28;20483;-59
2021/01/19 09:41:06;;;;;;;5.20;4.10;;;4.70;99.90;;;;;;5032453;28;20461;-58
2021/01/19 09:43:32;;;;;;;4.77;3.83;;;4.70;99.90;;;;;;5033049;28;20402;-59
2021/01/19 09:46:06;;;;;;;7.30;5.17;;;4.90;99.90;;;;;;5032957;28;20410;-59
2021/01/19 09:48:35;;;;;;;4.70;4.27;;;4.60;99.90;;;;;;5033389;28;20378;-58
2021/01/19 09:51:03;;;;;;;5.67;3.70;;;4.60;99.90;;;;;;5032708;28;20471;-59
2021/01/19 09:53:32;;;;;;;4.50;3.70;;;4.70;99.90;;;;;;5032685;28;20406;-58
2021/01/19 09:55:59;;;;;;;4.60;3.80;;;4.90;99.90;;;;;;5031263;28;20452;-59
2021/01/19 09:58:26;;;;;;;5.10;4.03;;;5.00;99.90;;;;;;5032987;28;20390;-58
2021/01/19 10:00:52;;;;;;;6.03;3.87;;;5.00;99.90;;;;;;5035946;28;20453;-58
2021/01/19 10:03:26;;;;;;;4.40;4.00;;;5.20;99.90;;;;;;5036477;28;20402;-57
2021/01/19 10:06:07;;;;;;;4.83;3.30;;;5.10;99.90;;;;;;5035748;28;20391;-58
2021/01/19 10:08:37;;;;;;;4.77;3.67;;;5.00;99.90;;;;;;5035917;28;20409;-59
2021/01/19 10:11:03;;;;;;;6.10;4.10;;;4.90;99.90;;;;;;5035541;28;20525;-58
2021/01/19 10:13:33;;;;;;;5.10;3.27;;;4.90;99.90;;;;;;5035659;28;20490;-59
2021/01/19 10:16:04;;;;;;;5.47;3.10;;;5.10;99.90;;;;;;5035693;28;20410;-58
2021/01/19 10:18:31;;;;;;;6.10;4.20;;;5.00;99.90;;;;;;5035761;28;20406;-58
2021/01/19 10:20:56;;;;;;;6.00;3.80;;;4.90;99.90;;;;;;5035976;28;20450;-57
2021/01/19 10:23:41;;;;;;;5.43;3.80;;;4.90;99.90;;;;;;5042585;28;20525;-57
2021/01/19 10:26:12;;;;;;;5.80;4.20;;;5.10;99.90;;;;;;5040871;28;20421;-53
2021/01/19 10:28:45;;;;;;;4.90;3.47;;;4.80;99.90;;;;;;5040400;28;20391;-57
2021/01/19 10:31:28;;;;;;;4.10;3.30;;;5.00;99.90;;;;;;5039017;28;20533;-56
2021/01/19 10:34:04;;;;;;;5.53;3.90;;;5.30;99.90;;;;;;5040366;28;20798;-57
2021/01/19 10:36:31;;;;;;;6.53;4.00;;;5.20;99.90;;;;;;5042901;28;20492;-56
2021/01/19 10:39:09;;;;;;;5.47;4.20;;;5.00;99.90;;;;;;5040561;28;20544;-54
2021/01/19 10:41:35;;;;;;;4.30;3.43;;;4.70;99.90;;;;;;5063911;28;20509;-57
2021/01/19 10:44:01;;;;;;;6.70;3.70;;;4.70;99.90;;;;;;5061848;28;20443;-54
2021/01/19 10:46:31;;;;;;;5.70;3.87;;;5.00;99.90;;;;;;5055255;28;20186;-57
2021/01/19 10:49:09;;;;;;;5.90;4.13;;;5.40;99.90;;;;;;5055350;28;20405;-58
2021/01/19 10:51:36;;;;;;;5.60;3.30;;;5.40;99.90;;;;;;5055374;28;20458;-56
2021/01/19 10:54:20;;;;;;;4.50;3.67;;;5.40;99.90;;;;;;5054628;28;20914;-58
2021/01/19 10:56:57;;;;;;;4.50;3.87;;;5.30;99.90;;;;;;5055372;28;20433;-58
2021/01/19 10:59:23;;;;;;;6.77;4.13;;;5.10;99.90;;;;;;5043134;28;20465;-57
2021/01/19 11:01:48;;;;;;;4.97;3.40;;;5.10;99.90;;;;;;5050413;28;20501;-58
2021/01/19 11:04:14;;;;;;;5.60;4.30;;;5.40;99.90;;;;;;5055238;28;20220;-57
2021/01/19 11:06:39;;;;;;;4.03;3.50;;;5.40;99.90;;;;;;5054089;28;20181;-56
2021/01/19 11:09:05;;;;;;;5.53;4.07;;;5.20;99.90;;;;;;5055025;28;20198;-54
2021/01/19 11:11:34;;;;;;;8.10;4.50;;;5.00;99.90;;;;;;5053718;28;20198;-57
2021/01/19 11:14:04;;;;;;;6.43;4.00;;;5.10;99.90;;;;;;5054982;28;20758;-55
2021/01/19 11:16:39;;;;;;;5.97;3.40;;;5.10;99.90;;;;;;5047113;28;20509;-58
2021/01/19 11:19:08;;;;;;;5.53;3.83;;;5.10;99.90;;;;;;5034869;28;20390;-58
2021/01/19 11:21:35;;;;;;;4.53;3.60;;;5.00;99.90;;;;;;5034605;28;20457;-59
2021/01/19 11:24:02;;;;;;;7.47;3.70;;;5.00;99.90;;;;;;5034420;28;20406;-56
2021/01/19 11:26:28;;;;;;;7.27;4.30;;;5.00;99.90;;;;;;5034415;28;20406;-59
2021/01/19 11:28:55;;;;;;;8.20;3.63;;;5.20;99.90;;;;;;5035083;28;20445;-58
2021/01/19 11:31:28;;;;;;;5.00;3.60;;;5.20;99.90;;;;;;5033874;28;20434;-59
2021/01/19 11:33:55;;;;;;;3.67;3.03;;;5.20;99.90;;;;;;5034281;28;20394;-59
2021/01/19 11:36:33;;;;;;;5.27;3.83;;;5.30;99.90;;;;;;5034149;28;20504;-58
2021/01/19 11:38:59;;;;;;;4.70;3.90;;;5.50;99.90;;;;;;5032914;28;20425;-59
2021/01/19 11:41:26;;;;;;;3.93;3.10;;;5.50;99.90;;;;;;5033937;28;20460;-58
2021/01/19 11:43:53;;;;;;;5.20;3.67;;;5.40;99.90;;;;;;5034230;28;20406;-59
2021/01/19 11:46:20;;;;;;;6.70;3.60;;;5.50;99.90;;;;;;5034199;28;20410;-58
2021/01/19 11:48:45;;;;;;;5.93;3.83;;;5.50;99.90;;;;;;5033993;28;20402;-58
2021/01/19 11:51:18;;;;;;;5.17;4.10;;;5.50;99.90;;;;;;5034094;28;20452;-59
2021/01/19 11:53:49;;;;;;;5.07;4.30;;;5.50;99.90;;;;;;5032844;28;20171;-57
2021/01/19 11:56:15;;;;;;;8.87;4.40;;;5.50;99.90;;;;;;5032556;28;20449;-59
2021/01/19 11:58:42;;;;;;;5.10;4.17;;;5.60;99.90;;;;;;5034050;28;20397;-57
2021/01/19 12:01:15;;;;;;;5.47;4.30;;;5.60;99.90;;;;;;5032629;28;20501;-59
2021/01/19 12:03:40;;;;;;;10.37;4.43;;;5.60;99.90;;;;;;5033848;28;20382;-58
2021/01/19 12:06:06;;;;;;;5.90;4.20;;;5.60;99.90;;;;;;5033493;28;20853;-57
2021/01/19 12:08:32;;;;;;;4.67;3.70;;;5.70;99.90;;;;;;5033438;28;20229;-56
2021/01/19 12:10:57;;;;;;;4.30;3.60;;;5.70;99.90;;;;;;5033931;28;20195;-59
2021/01/19 12:13:24;;;;;;;3.73;3.10;;;5.80;99.90;;;;;;5033543;28;20179;-58
2021/01/19 12:15:50;;;;;;;4.37;3.73;;;5.80;99.90;;;;;;5033409;28;20703;-58
2021/01/19 12:18:15;;;;;;;6.70;3.93;;;6.00;99.90;;;;;;5033793;28;20438;-58
2021/01/19 12:20:41;;;;;;;6.40;3.77;;;6.20;99.90;;;;;;5033473;28;20203;-58
2021/01/19 12:23:07;;;;;;;5.87;4.20;;;6.10;99.90;;;;;;5032692;28;20198;-58
2021/01/19 12:25:32;;;;;;;5.87;3.20;;;6.20;99.90;;;;;;5034229;28;20612;-59
2021/01/19 12:27:59;;;;;;;4.80;4.00;;;5.90;99.90;;;;;;5033618;28;20194;-57
2021/01/19 12:30:25;;;;;;;6.77;3.43;;;5.90;99.90;;;;;;5033614;28;20557;-58
2021/01/19 12:32:52;;;;;;;5.47;3.37;;;6.00;99.90;;;;;;5033561;28;20410;-58
2021/01/19 12:35:17;;;;;;;3.80;3.13;;;6.10;99.90;;;;;;5033226;28;20205;-58
2021/01/19 12:37:43;;;;;;;5.60;3.43;;;6.20;99.90;;;;;;5031741;28;21872;-65
2021/01/19 12:40:10;;;;;;;4.40;3.00;;;6.20;99.90;;;;;;5033358;28;20183;-59
2021/01/19 12:42:36;;;;;;;4.70;3.80;;;6.20;99.90;;;;;;5040952;28;20497;-59
2021/01/19 12:45:01;;;;;;;7.83;4.00;;;6.20;99.90;;;;;;5053290;28;20408;-58
2021/01/19 12:47:27;;;;;;;5.80;4.30;;;6.30;99.90;;;;;;5053190;28;20258;-59
2021/01/19 12:49:53;;;;;;;4.40;3.50;;;6.30;99.90;;;;;;5053358;28;20170;-59
2021/01/19 12:52:18;;;;;;;7.80;3.00;;;6.30;99.90;;;;;;5052953;28;20671;-59
2021/01/19 12:54:44;;;;;;;8.13;2.93;;;6.30;99.90;;;;;;5053427;28;20526;-58
2021/01/19 12:57:13;;;;;;;4.63;4.13;;;6.20;99.90;;;;;;5053186;28;20217;-59
2021/01/19 12:59:41;;;;;;;7.47;4.60;;;6.20;99.90;;;;;;5034909;28;20184;-59
2021/01/19 13:02:07;;;;;;;6.43;5.13;;;6.20;99.90;;;;;;5033421;28;20457;-59
2021/01/19 13:04:32;;;;;;;5.30;4.27;;;6.00;99.90;;;;;;5033420;28;20906;-59
2021/01/19 13:06:58;;;;;;;5.77;4.07;;;5.80;99.90;;;;;;5033643;28;20437;-58
2021/01/19 13:09:26;;;;;;;4.33;3.20;;;5.70;99.90;;;;;;5033240;28;20172;-60
2021/01/19 13:11:52;;;;;;;4.37;4.00;;;6.00;99.90;;;;;;5032262;28;20672;-58